Time;durP1;ratioP1;P1;durP2;ratioP2;P2;SDS_P1;SDS_P2;PMS_P1;PMS_P2;Temp;Humidity;BMP_temperature;BMP_pressure;BME280_temperature;BME280_humidity;BME280_pressure;Samples;Min_cycle;Max_cycle;Signal;HPM_P1;HPM_P2
2024/03/02 00:01:19;;;;;;;6.95;5.25;;;;;;;;;;4968115;28;20042;-78
2024/03/02 00:03:44;;;;;;;7.75;5.90;;;;;;;;;;4948452;28;20031;-77
2024/03/02 00:06:09;;;;;;;6.95;5.40;;;;;;;;;;4964182;28;20050;-78
2024/03/02 00:08:35;;;;;;;7.85;5.82;;;;;;;;;;4963338;28;20043;-78
2024/03/02 00:11:01;;;;;;;6.15;5.05;;;;;;;;;;4958342;28;20073;-79
2024/03/02 00:13:27;;;;;;;6.70;5.20;;;;;;;;;;4960337;28;20156;-78
2024/03/02 00:15:53;;;;;;;7.80;5.35;;;;;;;;;;4965812;28;20133;-79
2024/03/02 00:18:20;;;;;;;8.57;5.63;;;;;;;;;;4956866;28;20030;-79
2024/03/02 00:20:46;;;;;;;7.38;5.63;;;;;;;;;;4956472;28;20146;-79
2024/03/02 00:23:13;;;;;;;7.47;5.80;;;;;;;;;;4951086;28;20134;-78
2024/03/02 00:25:40;;;;;;;7.13;5.57;;;;;;;;;;4964734;28;20027;-78
2024/03/02 00:28:07;;;;;;;8.05;5.93;;;;;;;;;;4962194;28;20029;-78
2024/03/02 00:30:35;;;;;;;6.65;5.53;;;;;;;;;;4962328;28;20097;-78
2024/03/02 00:33:00;;;;;;;7.60;5.55;;;;;;;;;;4964714;28;20027;-78
2024/03/02 00:35:26;;;;;;;6.47;5.38;;;;;;;;;;4976772;28;20033;-79
2024/03/02 00:37:51;;;;;;;6.88;5.22;;;;;;;;;;4966300;28;20023;-79
2024/03/02 00:40:17;;;;;;;7.20;5.45;;;;;;;;;;4981288;28;20080;-78
2024/03/02 00:42:42;;;;;;;6.53;4.80;;;;;;;;;;4945918;28;20042;-79
2024/03/02 00:45:07;;;;;;;6.25;5.30;;;;;;;;;;4965724;28;20027;-78
2024/03/02 00:47:35;;;;;;;7.63;5.45;;;;;;;;;;4968222;28;20114;-79
2024/03/02 00:50:00;;;;;;;7.40;5.80;;;;;;;;;;4946530;28;20050;-78
2024/03/02 00:52:25;;;;;;;7.28;5.60;;;;;;;;;;4966537;28;20077;-79
2024/03/02 00:54:51;;;;;;;7.55;5.60;;;;;;;;;;4968026;28;20095;-79
2024/03/02 00:57:16;;;;;;;7.95;5.45;;;;;;;;;;4967723;28;20031;-78
2024/03/02 00:59:42;;;;;;;7.65;5.22;;;;;;;;;;4961877;28;20540;-78
2024/03/02 01:02:07;;;;;;;6.93;5.47;;;;;;;;;;4970613;28;20026;-79
2024/03/02 01:04:32;;;;;;;6.63;5.20;;;;;;;;;;4951677;28;20418;-78
2024/03/02 01:06:58;;;;;;;7.72;5.75;;;;;;;;;;4969535;28;20470;-78
2024/03/02 01:09:24;;;;;;;7.63;5.97;;;;;;;;;;4985831;28;20041;-79
2024/03/02 01:11:49;;;;;;;7.00;5.55;;;;;;;;;;4974870;28;20026;-78
2024/03/02 01:14:14;;;;;;;6.82;5.50;;;;;;;;;;4981188;28;20022;-78
2024/03/02 01:16:40;;;;;;;8.75;5.85;;;;;;;;;;4984052;28;20035;-77
2024/03/02 01:19:05;;;;;;;7.10;5.40;;;;;;;;;;4974561;28;20027;-78
2024/03/02 01:21:30;;;;;;;7.68;5.00;;;;;;;;;;4978358;28;20544;-78
2024/03/02 01:23:55;;;;;;;7.18;5.53;;;;;;;;;;4979168;28;20038;-78
2024/03/02 01:26:21;;;;;;;7.15;5.40;;;;;;;;;;4987408;28;20039;-78
2024/03/02 01:28:46;;;;;;;7.20;5.57;;;;;;;;;;4999198;28;20213;-78
2024/03/02 01:31:11;;;;;;;6.80;4.80;;;;;;;;;;4988742;28;20027;-79
2024/03/02 01:33:37;;;;;;;6.47;5.22;;;;;;;;;;4970894;28;20090;-78
2024/03/02 01:36:02;;;;;;;7.20;5.55;;;;;;;;;;4995509;28;20177;-79
2024/03/02 01:38:29;;;;;;;6.68;5.30;;;;;;;;;;4974877;28;20529;-78
2024/03/02 01:40:56;;;;;;;6.35;4.70;;;;;;;;;;4973218;28;20039;-78
2024/03/02 01:43:21;;;;;;;6.93;5.18;;;;;;;;;;4986848;28;20615;-78
2024/03/02 01:45:47;;;;;;;6.95;5.38;;;;;;;;;;4965561;28;20046;-79
2024/03/02 01:48:12;;;;;;;6.18;5.22;;;;;;;;;;4988415;28;20058;-78
2024/03/02 01:50:37;;;;;;;7.07;5.55;;;;;;;;;;4978001;28;20041;-79
2024/03/02 01:53:03;;;;;;;7.35;5.45;;;;;;;;;;4977434;28;20035;-79
2024/03/02 01:55:30;;;;;;;6.07;5.05;;;;;;;;;;4985768;28;20068;-79
2024/03/02 01:57:55;;;;;;;6.45;5.13;;;;;;;;;;4984495;28;20548;-79
2024/03/02 02:00:21;;;;;;;6.38;5.07;;;;;;;;;;4977345;28;20051;-78
2024/03/02 02:02:47;;;;;;;6.82;5.22;;;;;;;;;;4977682;28;20067;-78
2024/03/02 02:05:13;;;;;;;6.82;5.40;;;;;;;;;;4971221;28;20501;-77
2024/03/02 02:07:40;;;;;;;7.70;5.50;;;;;;;;;;4981538;28;20897;-78
2024/03/02 02:10:05;;;;;;;6.78;4.85;;;;;;;;;;4970695;28;20041;-78
2024/03/02 02:12:31;;;;;;;6.78;5.00;;;;;;;;;;4980891;28;20031;-78
2024/03/02 02:14:56;;;;;;;7.53;5.38;;;;;;;;;;4996749;28;20452;-79
2024/03/02 02:17:21;;;;;;;7.30;5.38;;;;;;;;;;4976431;28;20038;-79
2024/03/02 02:19:47;;;;;;;7.82;5.55;;;;;;;;;;4989500;28;20653;-78
2024/03/02 02:22:12;;;;;;;6.60;5.22;;;;;;;;;;4980394;28;20034;-79
2024/03/02 02:24:41;;;;;;;7.20;5.10;;;;;;;;;;4982418;28;20096;-78
2024/03/02 02:27:07;;;;;;;6.50;4.93;;;;;;;;;;4956418;28;20026;-79
2024/03/02 02:29:32;;;;;;;7.20;5.50;;;;;;;;;;4982598;28;20053;-78
2024/03/02 02:31:58;;;;;;;8.00;5.30;;;;;;;;;;4971784;28;20731;-78
2024/03/02 02:34:23;;;;;;;6.55;5.10;;;;;;;;;;4965896;28;20035;-78
2024/03/02 02:36:48;;;;;;;7.43;5.60;;;;;;;;;;4981417;28;20081;-79
2024/03/02 02:39:14;;;;;;;7.70;5.47;;;;;;;;;;4969092;28;20034;-79
2024/03/02 02:41:40;;;;;;;6.53;4.80;;;;;;;;;;4976488;28;20034;-79
2024/03/02 02:44:05;;;;;;;7.15;4.90;;;;;;;;;;4984858;28;20081;-78
2024/03/02 02:46:30;;;;;;;7.15;5.10;;;;;;;;;;4985491;28;20034;-78
2024/03/02 02:48:56;;;;;;;5.78;5.18;;;;;;;;;;4973364;28;20137;-78
2024/03/02 02:51:21;;;;;;;6.95;5.32;;;;;;;;;;4985903;28;20524;-78
2024/03/02 02:53:46;;;;;;;6.65;5.05;;;;;;;;;;4952020;28;20439;-79
2024/03/02 02:56:12;;;;;;;6.43;4.88;;;;;;;;;;4970295;28;20041;-78
2024/03/02 02:58:37;;;;;;;6.25;4.93;;;;;;;;;;4970935;28;20069;-78
2024/03/02 03:01:03;;;;;;;7.18;5.28;;;;;;;;;;4983676;28;20125;-79
2024/03/02 03:03:29;;;;;;;6.85;5.25;;;;;;;;;;4988515;28;20039;-78
2024/03/02 03:05:54;;;;;;;5.82;4.95;;;;;;;;;;4974284;28;20054;-79
2024/03/02 03:08:19;;;;;;;6.25;4.95;;;;;;;;;;4972572;28;20490;-79
2024/03/02 03:10:45;;;;;;;5.80;4.75;;;;;;;;;;4967733;28;20569;-79
2024/03/02 03:13:10;;;;;;;6.97;5.38;;;;;;;;;;4983385;28;20034;-79
2024/03/02 03:15:38;;;;;;;7.38;5.45;;;;;;;;;;4983419;28;20051;-78
2024/03/02 03:18:04;;;;;;;6.05;4.63;;;;;;;;;;4972368;28;20438;-78
2024/03/02 03:20:29;;;;;;;6.63;5.20;;;;;;;;;;4981249;28;20568;-78
2024/03/02 03:22:55;;;;;;;6.88;5.13;;;;;;;;;;4987376;28;20108;-79
2024/03/02 03:25:20;;;;;;;6.25;4.97;;;;;;;;;;4988331;28;20071;-78
2024/03/02 03:27:46;;;;;;;6.60;4.85;;;;;;;;;;4971196;28;20573;-78
2024/03/02 03:30:11;;;;;;;5.97;5.03;;;;;;;;;;4985815;28;20042;-78
2024/03/02 03:32:37;;;;;;;6.38;4.85;;;;;;;;;;4996905;28;20058;-78
2024/03/02 03:35:02;;;;;;;7.15;5.13;;;;;;;;;;4972829;28;20038;-78
2024/03/02 03:37:32;;;;;;;6.47;4.78;;;;;;;;;;4968991;28;21061;-78
2024/03/02 03:39:57;;;;;;;6.88;5.20;;;;;;;;;;4989676;28;20496;-78
2024/03/02 03:42:23;;;;;;;6.68;5.13;;;;;;;;;;4979531;28;20019;-79
2024/03/02 03:44:48;;;;;;;6.05;4.65;;;;;;;;;;4970549;28;20086;-78
2024/03/02 03:47:13;;;;;;;6.70;5.05;;;;;;;;;;4977058;28;20500;-78
2024/03/02 03:49:39;;;;;;;6.13;4.70;;;;;;;;;;4993900;28;20038;-79
2024/03/02 03:52:04;;;;;;;6.28;5.22;;;;;;;;;;4963639;28;20038;-79
2024/03/02 03:54:29;;;;;;;6.82;5.20;;;;;;;;;;4959371;28;20137;-78
2024/03/02 03:56:56;;;;;;;5.88;4.85;;;;;;;;;;4964380;28;20121;-79
2024/03/02 03:59:21;;;;;;;6.43;4.80;;;;;;;;;;4975405;28;20041;-79
2024/03/02 04:01:46;;;;;;;6.90;5.20;;;;;;;;;;4969505;28;20255;-79
2024/03/02 04:04:12;;;;;;;6.47;5.13;;;;;;;;;;4970064;28;20528;-78
2024/03/02 04:06:37;;;;;;;6.50;5.10;;;;;;;;;;4968756;28;20046;-78
2024/03/02 04:09:03;;;;;;;6.35;4.95;;;;;;;;;;4986601;28;20050;-78
2024/03/02 04:11:30;;;;;;;6.40;4.80;;;;;;;;;;4970109;28;20039;-78
2024/03/02 04:13:55;;;;;;;6.45;4.65;;;;;;;;;;4971527;28;20079;-78
2024/03/02 04:16:21;;;;;;;6.10;4.57;;;;;;;;;;4990047;28;20042;-78
2024/03/02 04:18:46;;;;;;;6.78;5.03;;;;;;;;;;4970363;28;20499;-78
2024/03/02 04:21:11;;;;;;;5.93;4.53;;;;;;;;;;4986698;28;20085;-78
2024/03/02 04:23:38;;;;;;;6.85;4.57;;;;;;;;;;4973489;28;20042;-77
2024/03/02 04:26:04;;;;;;;5.82;4.47;;;;;;;;;;4972437;28;20118;-78
2024/03/02 04:28:29;;;;;;;6.55;5.03;;;;;;;;;;4976149;28;20244;-78
2024/03/02 04:30:54;;;;;;;5.90;4.70;;;;;;;;;;4987388;28;20097;-78
2024/03/02 04:33:20;;;;;;;5.97;4.50;;;;;;;;;;4984308;28;20031;-77
2024/03/02 04:35:46;;;;;;;6.80;5.38;;;;;;;;;;4962546;28;20115;-77
2024/03/02 04:38:11;;;;;;;6.60;4.93;;;;;;;;;;4983195;28;20509;-78
2024/03/02 04:40:36;;;;;;;7.57;5.50;;;;;;;;;;4988124;28;20038;-77
2024/03/02 04:43:03;;;;;;;5.97;4.60;;;;;;;;;;4970960;28;20081;-78
2024/03/02 04:45:28;;;;;;;6.40;4.57;;;;;;;;;;4978861;28;20038;-77
2024/03/02 04:47:54;;;;;;;6.00;4.80;;;;;;;;;;4984310;28;20062;-78
2024/03/02 04:50:19;;;;;;;5.90;4.40;;;;;;;;;;4972366;28;20039;-77
2024/03/02 04:52:44;;;;;;;5.93;5.07;;;;;;;;;;4980252;28;20503;-78
2024/03/02 04:55:17;;;;;;;6.72;4.97;;;;;;;;;;4978707;28;20060;-80
2024/03/02 04:57:42;;;;;;;6.75;4.97;;;;;;;;;;4971938;28;20038;-77
2024/03/02 05:00:08;;;;;;;5.75;4.53;;;;;;;;;;4966127;28;20027;-77
2024/03/02 05:02:34;;;;;;;6.47;5.20;;;;;;;;;;4977500;28;20084;-77
2024/03/02 05:04:59;;;;;;;6.25;4.80;;;;;;;;;;4977393;28;20528;-77
2024/03/02 05:07:26;;;;;;;5.93;4.72;;;;;;;;;;4972875;28;20055;-78
2024/03/02 05:09:51;;;;;;;6.25;4.68;;;;;;;;;;4963237;28;20069;-78
2024/03/02 05:15:03;;;;;;;6.82;5.13;;;;;;;;;;4981830;28;20050;-78
2024/03/02 05:17:28;;;;;;;6.07;5.07;;;;;;;;;;4981820;28;20042;-78
2024/03/02 05:19:54;;;;;;;6.80;5.18;;;;;;;;;;4978666;28;20088;-77
2024/03/02 05:22:19;;;;;;;5.70;4.50;;;;;;;;;;4994409;28;20030;-78
2024/03/02 05:24:44;;;;;;;5.82;4.78;;;;;;;;;;4990081;28;20046;-77
2024/03/02 05:27:10;;;;;;;7.18;5.40;;;;;;;;;;5009557;28;20117;-78
2024/03/02 05:29:35;;;;;;;6.47;5.00;;;;;;;;;;5020239;28;20035;-79
2024/03/02 05:32:00;;;;;;;6.18;4.82;;;;;;;;;;4999678;28;20069;-79
2024/03/02 05:34:26;;;;;;;7.05;5.30;;;;;;;;;;4990339;28;20041;-79
2024/03/02 05:36:51;;;;;;;6.38;4.75;;;;;;;;;;5005949;28;20046;-79
2024/03/02 05:39:16;;;;;;;6.05;4.28;;;;;;;;;;4992578;28;20410;-78
2024/03/02 05:41:41;;;;;;;5.45;4.22;;;;;;;;;;5004826;28;20058;-79
2024/03/02 05:44:07;;;;;;;5.82;4.55;;;;;;;;;;4981922;28;20031;-78
2024/03/02 05:46:36;;;;;;;5.82;4.38;;;;;;;;;;4954258;28;20031;-77
2024/03/02 05:49:03;;;;;;;5.55;4.20;;;;;;;;;;4966435;28;20026;-77
2024/03/02 05:51:28;;;;;;;5.45;4.30;;;;;;;;;;4970156;28;20039;-80
2024/03/02 05:53:59;;;;;;;6.25;4.43;;;;;;;;;;4969813;28;20125;-80
2024/03/02 05:56:36;;;;;;;5.95;4.50;;;;;;;;;;4951600;28;20518;-79
2024/03/02 05:59:13;;;;;;;5.53;4.20;;;;;;;;;;4952568;28;20486;-79
2024/03/02 06:01:46;;;;;;;4.78;3.90;;;;;;;;;;4968473;28;20066;-76
2024/03/02 06:04:11;;;;;;;5.75;4.15;;;;;;;;;;4963465;28;20007;-78
2024/03/02 06:06:37;;;;;;;5.47;4.28;;;;;;;;;;4943598;28;20033;-78
2024/03/02 06:09:07;;;;;;;6.20;4.50;;;;;;;;;;4962435;28;20112;-78
2024/03/02 06:11:33;;;;;;;5.53;4.13;;;;;;;;;;4976444;28;20045;-82
2024/03/02 06:13:58;;;;;;;8.70;4.65;;;;;;;;;;4975235;28;20152;-77
2024/03/02 06:16:23;;;;;;;6.03;4.28;;;;;;;;;;4970464;28;20042;-77
2024/03/02 06:18:48;;;;;;;5.18;3.90;;;;;;;;;;4969136;28;20038;-77
2024/03/02 06:21:14;;;;;;;6.13;4.38;;;;;;;;;;4971274;28;20035;-76
2024/03/02 06:23:39;;;;;;;5.75;4.07;;;;;;;;;;4973693;28;20034;-75
2024/03/02 06:26:04;;;;;;;5.65;3.92;;;;;;;;;;4973526;28;20093;-76
2024/03/02 06:28:30;;;;;;;5.15;3.97;;;;;;;;;;4968463;28;20034;-81
2024/03/02 06:30:56;;;;;;;5.07;4.03;;;;;;;;;;4982454;28;20050;-79
2024/03/02 06:33:21;;;;;;;5.82;4.45;;;;;;;;;;4979189;28;20043;-79
2024/03/02 06:35:46;;;;;;;5.60;4.07;;;;;;;;;;4968058;28;20110;-82
2024/03/02 06:38:11;;;;;;;5.80;4.10;;;;;;;;;;4983282;28;20094;-80
2024/03/02 06:40:40;;;;;;;5.47;4.10;;;;;;;;;;4985628;28;20445;-78
2024/03/02 06:43:05;;;;;;;6.22;4.20;;;;;;;;;;4968741;28;20031;-83
2024/03/02 06:45:31;;;;;;;6.28;4.35;;;;;;;;;;4964144;28;20037;-82
2024/03/02 06:47:56;;;;;;;6.00;4.13;;;;;;;;;;4962078;28;20042;-78
2024/03/02 06:50:22;;;;;;;5.63;4.25;;;;;;;;;;4964793;28;20034;-79
2024/03/02 06:52:47;;;;;;;5.80;4.10;;;;;;;;;;4957802;28;20437;-79
2024/03/02 06:55:12;;;;;;;5.07;4.00;;;;;;;;;;4960838;28;20165;-80
2024/03/02 06:57:38;;;;;;;6.35;4.20;;;;;;;;;;4962760;28;20485;-79
2024/03/02 07:00:05;;;;;;;5.38;4.03;;;;;;;;;;4960901;28;20059;-78
2024/03/02 07:02:30;;;;;;;4.68;3.67;;;;;;;;;;4961167;28;20039;-78
2024/03/02 07:04:56;;;;;;;5.20;4.05;;;;;;;;;;4964322;28;20045;-78
2024/03/02 07:07:21;;;;;;;5.38;4.20;;;;;;;;;;4959554;28;20126;-80
2024/03/02 07:09:47;;;;;;;5.07;3.92;;;;;;;;;;4964954;28;20209;-81
2024/03/02 07:12:12;;;;;;;5.75;4.32;;;;;;;;;;4966423;28;20116;-79
2024/03/02 07:17:22;;;;;;;5.18;3.85;;;;;;;;;;4959406;28;20537;-79
2024/03/02 07:19:47;;;;;;;5.80;4.10;;;;;;;;;;4961528;28;20042;-78
2024/03/02 07:22:12;;;;;;;6.35;4.38;;;;;;;;;;4944645;28;20038;-76
2024/03/02 07:24:41;;;;;;;5.18;4.03;;;;;;;;;;4961642;28;20749;-76
2024/03/02 07:27:07;;;;;;;5.28;4.30;;;;;;;;;;4959303;28;20039;-77
2024/03/02 07:29:32;;;;;;;5.38;3.88;;;;;;;;;;4961519;28;20042;-76
2024/03/02 07:31:57;;;;;;;5.97;3.90;;;;;;;;;;4958252;28;20081;-75
2024/03/02 07:34:23;;;;;;;5.45;4.18;;;;;;;;;;4954144;28;20102;-84
2024/03/02 07:36:49;;;;;;;5.50;4.20;;;;;;;;;;4962616;28;20073;-81
2024/03/02 07:39:14;;;;;;;5.38;4.10;;;;;;;;;;4966865;28;20123;-79
2024/03/02 07:41:40;;;;;;;5.28;3.90;;;;;;;;;;4959031;28;20134;-74
2024/03/02 07:44:05;;;;;;;5.15;4.18;;;;;;;;;;4955568;28;20367;-75
2024/03/02 07:46:31;;;;;;;6.35;4.10;;;;;;;;;;4945442;28;20430;-78
2024/03/02 07:48:56;;;;;;;5.25;4.20;;;;;;;;;;4950953;28;20129;-78
2024/03/02 07:51:22;;;;;;;5.32;4.18;;;;;;;;;;4964893;28;20035;-76
2024/03/02 07:53:47;;;;;;;9.90;5.18;;;;;;;;;;4952394;28;20068;-78
2024/03/02 07:56:12;;;;;;;5.80;4.20;;;;;;;;;;4963054;28;20065;-78
2024/03/02 07:58:38;;;;;;;5.72;4.22;;;;;;;;;;4945486;28;20222;-79
2024/03/02 08:01:03;;;;;;;5.60;4.07;;;;;;;;;;4962267;28;20077;-78
2024/03/02 08:03:29;;;;;;;6.00;4.40;;;;;;;;;;4964068;28;20047;-79
2024/03/02 08:05:54;;;;;;;5.40;4.25;;;;;;;;;;4960145;28;20057;-77
2024/03/02 08:08:19;;;;;;;6.15;4.53;;;;;;;;;;4962925;28;20035;-78
2024/03/02 08:10:45;;;;;;;6.40;4.32;;;;;;;;;;4961791;28;20035;-78
2024/03/02 08:13:10;;;;;;;6.55;4.55;;;;;;;;;;4954559;28;20490;-78
2024/03/02 08:15:35;;;;;;;5.75;4.32;;;;;;;;;;4954189;28;20035;-78
2024/03/02 08:18:01;;;;;;;6.25;4.13;;;;;;;;;;4958146;28;20054;-78
2024/03/02 08:20:26;;;;;;;5.38;4.22;;;;;;;;;;4940313;28;20066;-79
2024/03/02 08:22:54;;;;;;;5.90;4.32;;;;;;;;;;4962046;28;20043;-79
2024/03/02 08:25:20;;;;;;;6.80;4.50;;;;;;;;;;4960803;28;20047;-79
2024/03/02 08:27:45;;;;;;;5.70;4.20;;;;;;;;;;4961156;28;20038;-89
2024/03/02 08:30:11;;;;;;;6.22;4.20;;;;;;;;;;4961629;28;20038;-81
2024/03/02 08:32:36;;;;;;;5.55;4.20;;;;;;;;;;4963219;28;20035;-80
2024/03/02 08:35:01;;;;;;;5.75;4.35;;;;;;;;;;4960247;28;20825;-78
2024/03/02 08:37:27;;;;;;;5.53;4.07;;;;;;;;;;4963821;28;20426;-84
2024/03/02 08:39:52;;;;;;;7.18;4.70;;;;;;;;;;4959472;28;20082;-80
2024/03/02 08:42:17;;;;;;;6.78;4.70;;;;;;;;;;4961261;28;20042;-78
2024/03/02 08:44:43;;;;;;;5.85;4.35;;;;;;;;;;4958036;28;20366;-77
2024/03/02 08:47:08;;;;;;;5.78;4.57;;;;;;;;;;4958687;28;20043;-77
2024/03/02 08:49:33;;;;;;;5.97;4.20;;;;;;;;;;4943737;28;20035;-79
2024/03/02 08:51:59;;;;;;;5.88;4.45;;;;;;;;;;4959321;28;20043;-87
2024/03/02 08:54:24;;;;;;;5.82;4.20;;;;;;;;;;4963326;28;20110;-86
2024/03/02 08:56:50;;;;;;;5.60;4.35;;;;;;;;;;4977714;28;20129;-87
2024/03/02 08:59:15;;;;;;;6.32;4.25;;;;;;;;;;4944319;28;20085;-78
2024/03/02 09:01:41;;;;;;;5.25;4.15;;;;;;;;;;4963871;28;20529;-78
2024/03/02 09:04:08;;;;;;;6.43;4.65;;;;;;;;;;4946299;28;20089;-79
2024/03/02 09:06:34;;;;;;;6.00;4.43;;;;;;;;;;4960483;28;20447;-79
2024/03/02 09:08:59;;;;;;;5.25;4.22;;;;;;;;;;4963753;28;20129;-79
2024/03/02 09:11:25;;;;;;;6.07;4.20;;;;;;;;;;4965847;28;20054;-79
2024/03/02 09:13:50;;;;;;;6.00;4.35;;;;;;;;;;4963176;28;20039;-79
2024/03/02 09:16:15;;;;;;;5.93;4.47;;;;;;;;;;4944682;28;20051;-78
2024/03/02 09:18:41;;;;;;;6.47;4.55;;;;;;;;;;4969768;28;20575;-79
2024/03/02 09:21:07;;;;;;;6.18;4.05;;;;;;;;;;4943385;28;20122;-78
2024/03/02 09:23:33;;;;;;;6.05;4.38;;;;;;;;;;4963663;28;20039;-77
2024/03/02 09:25:58;;;;;;;6.15;4.28;;;;;;;;;;4960471;28;20049;-77
2024/03/02 09:28:23;;;;;;;6.15;4.30;;;;;;;;;;4964013;28;20592;-78
2024/03/02 09:30:49;;;;;;;6.45;4.65;;;;;;;;;;4969724;28;20046;-77
2024/03/02 09:33:14;;;;;;;7.15;4.82;;;;;;;;;;4965620;28;20058;-77
2024/03/02 09:35:39;;;;;;;5.57;4.25;;;;;;;;;;4965401;28;20043;-78
2024/03/02 09:38:05;;;;;;;5.40;3.97;;;;;;;;;;4946051;28;20050;-78
2024/03/02 09:40:30;;;;;;;7.45;4.45;;;;;;;;;;4965589;28;20045;-79
2024/03/02 09:42:56;;;;;;;8.68;4.95;;;;;;;;;;4974377;28;20126;-79
2024/03/02 09:45:22;;;;;;;9.27;4.97;;;;;;;;;;4974335;28;20150;-78
2024/03/02 09:47:47;;;;;;;7.40;4.88;;;;;;;;;;4972805;28;20126;-78
2024/03/02 09:50:13;;;;;;;6.97;4.47;;;;;;;;;;4965970;28;20041;-79
2024/03/02 09:52:39;;;;;;;10.20;4.70;;;;;;;;;;4965247;28;20038;-79
2024/03/02 09:55:05;;;;;;;6.78;4.30;;;;;;;;;;4964729;28;20469;-81
2024/03/02 09:57:30;;;;;;;6.03;4.07;;;;;;;;;;4987964;28;20065;-80
2024/03/02 09:59:55;;;;;;;8.07;4.13;;;;;;;;;;4966960;28;20030;-78
2024/03/02 10:02:22;;;;;;;6.63;4.55;;;;;;;;;;4963512;28;20050;-82
2024/03/02 10:04:49;;;;;;;7.22;4.43;;;;;;;;;;4964998;28;20030;-79
2024/03/02 10:07:14;;;;;;;5.47;4.22;;;;;;;;;;4963544;28;20101;-77
2024/03/02 10:09:49;;;;;;;7.55;4.47;;;;;;;;;;4946378;28;20298;-77
2024/03/02 10:12:15;;;;;;;7.30;4.35;;;;;;;;;;4966873;28;20042;-77
2024/03/02 10:14:41;;;;;;;6.07;4.18;;;;;;;;;;4961212;28;20082;-77
2024/03/02 10:17:08;;;;;;;5.82;4.05;;;;;;;;;;4962199;28;20125;-77
2024/03/02 10:19:34;;;;;;;6.40;4.35;;;;;;;;;;4962169;28;20035;-77
2024/03/02 10:22:00;;;;;;;6.63;4.60;;;;;;;;;;4965917;28;20535;-79
2024/03/02 10:24:26;;;;;;;7.45;4.47;;;;;;;;;;4970929;28;20039;-81
2024/03/02 10:26:52;;;;;;;5.85;4.25;;;;;;;;;;4978978;28;20043;-81
2024/03/02 10:29:17;;;;;;;7.38;4.47;;;;;;;;;;4974921;28;20037;-77
2024/03/02 10:31:46;;;;;;;5.82;4.32;;;;;;;;;;4970773;28;20031;-79
2024/03/02 10:34:11;;;;;;;6.53;4.47;;;;;;;;;;4967581;28;20037;-77
2024/03/02 10:36:37;;;;;;;6.47;4.30;;;;;;;;;;4964019;28;20146;-79
2024/03/02 10:39:06;;;;;;;6.35;4.57;;;;;;;;;;4963846;28;20065;-74
2024/03/02 10:41:35;;;;;;;5.53;4.28;;;;;;;;;;4967095;28;20122;-76
2024/03/02 10:44:02;;;;;;;7.30;4.53;;;;;;;;;;4965076;28;20520;-78
2024/03/02 10:46:29;;;;;;;5.05;4.03;;;;;;;;;;4972299;28;20413;-77
2024/03/02 10:48:54;;;;;;;6.72;4.65;;;;;;;;;;4965864;28;20039;-78
2024/03/02 10:51:19;;;;;;;6.05;4.22;;;;;;;;;;4965999;28;20039;-78
2024/03/02 10:53:45;;;;;;;7.70;4.28;;;;;;;;;;4964392;28;20073;-77
2024/03/02 10:56:10;;;;;;;6.70;4.18;;;;;;;;;;4965154;28;20062;-78
2024/03/02 10:58:35;;;;;;;6.88;4.45;;;;;;;;;;4953558;28;20077;-77
2024/03/02 11:01:02;;;;;;;7.40;4.20;;;;;;;;;;4962373;28;20039;-79
2024/03/02 11:03:27;;;;;;;8.18;4.40;;;;;;;;;;4966379;28;20031;-76
2024/03/02 11:05:53;;;;;;;7.20;4.80;;;;;;;;;;4974503;28;20096;-81
2024/03/02 11:08:19;;;;;;;7.22;4.35;;;;;;;;;;4973030;28;20050;-85
2024/03/02 11:10:48;;;;;;;7.20;4.22;;;;;;;;;;4972588;28;20037;-83
2024/03/02 11:13:13;;;;;;;7.05;4.32;;;;;;;;;;4973417;28;20031;-81
2024/03/02 11:15:39;;;;;;;7.63;4.65;;;;;;;;;;4974673;28;20038;-82
2024/03/02 11:18:08;;;;;;;6.20;4.45;;;;;;;;;;4981663;28;20050;-81
2024/03/02 11:20:40;;;;;;;7.32;4.65;;;;;;;;;;4972801;28;20035;-82
2024/03/02 11:23:13;;;;;;;7.20;4.25;;;;;;;;;;4971017;28;20482;-82
2024/03/02 11:25:47;;;;;;;5.78;4.03;;;;;;;;;;4984168;28;20026;-82
2024/03/02 11:28:12;;;;;;;6.40;4.80;;;;;;;;;;4968800;28;20425;-79
2024/03/02 11:30:37;;;;;;;6.78;4.35;;;;;;;;;;4966935;28;20031;-79
2024/03/02 11:33:09;;;;;;;6.13;4.32;;;;;;;;;;4962660;28;20043;-80
2024/03/02 11:35:35;;;;;;;6.18;4.28;;;;;;;;;;4970420;28;20793;-81
2024/03/02 11:38:01;;;;;;;6.45;4.20;;;;;;;;;;4985806;28;20142;-81
2024/03/02 11:40:27;;;;;;;7.35;4.20;;;;;;;;;;4983214;28;20034;-80
2024/03/02 11:42:56;;;;;;;6.20;4.30;;;;;;;;;;4989109;28;20049;-83
2024/03/02 11:45:24;;;;;;;6.78;4.68;;;;;;;;;;4986372;28;20093;-79
2024/03/02 11:47:50;;;;;;;6.97;4.70;;;;;;;;;;4982546;28;20063;-79
2024/03/02 11:50:15;;;;;;;6.35;4.00;;;;;;;;;;4982779;28;20042;-83
2024/03/02 11:52:40;;;;;;;6.30;4.30;;;;;;;;;;4971701;28;20352;-78
2024/03/02 11:55:06;;;;;;;6.72;4.22;;;;;;;;;;4943270;28;20050;-79
2024/03/02 11:57:32;;;;;;;5.97;4.25;;;;;;;;;;4963729;28;20170;-79
2024/03/02 11:59:59;;;;;;;7.45;4.88;;;;;;;;;;4959506;28;20129;-83
2024/03/02 12:02:25;;;;;;;6.15;3.83;;;;;;;;;;4963579;28;20038;-80
2024/03/02 12:04:51;;;;;;;5.90;4.07;;;;;;;;;;4961361;28;20091;-81
2024/03/02 12:07:23;;;;;;;6.78;4.75;;;;;;;;;;4964716;28;20525;-82
2024/03/02 12:09:48;;;;;;;7.47;4.82;;;;;;;;;;4963429;28;20054;-82
2024/03/02 12:12:20;;;;;;;6.63;4.05;;;;;;;;;;4949636;28;20035;-82
2024/03/02 12:14:53;;;;;;;6.38;4.63;;;;;;;;;;4961958;28;20109;-82
2024/03/02 12:17:18;;;;;;;6.05;4.35;;;;;;;;;;4962273;28;20058;-82
2024/03/02 12:19:44;;;;;;;5.63;4.28;;;;;;;;;;4963677;28;20035;-83
2024/03/02 12:22:09;;;;;;;5.35;4.03;;;;;;;;;;4965806;28;20623;-83
2024/03/02 12:24:37;;;;;;;6.47;4.40;;;;;;;;;;4962136;28;20189;-83
2024/03/02 12:27:02;;;;;;;6.55;4.25;;;;;;;;;;4945866;28;20118;-84
2024/03/02 12:29:28;;;;;;;6.47;4.40;;;;;;;;;;4966260;28;20194;-85
2024/03/02 12:31:54;;;;;;;6.22;4.32;;;;;;;;;;4967198;28;20046;-79
2024/03/02 12:34:20;;;;;;;5.53;4.00;;;;;;;;;;4985050;28;20054;-80
2024/03/02 12:36:48;;;;;;;5.70;3.92;;;;;;;;;;4964086;28;20042;-80
2024/03/02 12:39:13;;;;;;;7.10;4.45;;;;;;;;;;4946930;28;20034;-80
2024/03/02 12:41:39;;;;;;;6.68;4.35;;;;;;;;;;4967223;28;20509;-80
2024/03/02 12:44:04;;;;;;;7.15;4.72;;;;;;;;;;4961848;28;20154;-80
2024/03/02 12:46:30;;;;;;;6.55;4.70;;;;;;;;;;4966831;28;20596;-78
2024/03/02 12:48:56;;;;;;;6.32;4.32;;;;;;;;;;4949691;28;20047;-78
2024/03/02 12:51:21;;;;;;;5.97;4.35;;;;;;;;;;4968293;28;20564;-79
2024/03/02 12:53:53;;;;;;;6.63;4.55;;;;;;;;;;4965636;28;20045;-79
2024/03/02 12:56:18;;;;;;;5.88;4.20;;;;;;;;;;4980574;28;20043;-79
2024/03/02 12:58:43;;;;;;;6.32;4.25;;;;;;;;;;4951063;28;20049;-79
2024/03/02 13:01:10;;;;;;;6.45;4.55;;;;;;;;;;4962337;28;20040;-79
2024/03/02 13:03:38;;;;;;;6.63;4.38;;;;;;;;;;4980779;28;20105;-78
2024/03/02 13:06:04;;;;;;;5.93;4.70;;;;;;;;;;4964404;28;20502;-79
2024/03/02 13:08:30;;;;;;;5.85;4.28;;;;;;;;;;4962571;28;20046;-78
2024/03/02 13:10:55;;;;;;;7.18;4.35;;;;;;;;;;4957472;28;20035;-79
2024/03/02 13:13:20;;;;;;;6.63;4.38;;;;;;;;;;4960676;28;20042;-79
2024/03/02 13:15:46;;;;;;;6.95;4.70;;;;;;;;;;4962730;28;20039;-79
2024/03/02 13:18:11;;;;;;;6.15;4.30;;;;;;;;;;4962819;28;21529;-78
2024/03/02 13:20:37;;;;;;;6.00;4.40;;;;;;;;;;4972000;28;20094;-80
2024/03/02 13:23:02;;;;;;;5.88;4.07;;;;;;;;;;4955206;28;20444;-79
2024/03/02 13:25:27;;;;;;;6.93;4.55;;;;;;;;;;4971520;28;20039;-79
2024/03/02 13:27:53;;;;;;;6.18;4.30;;;;;;;;;;4976163;28;20030;-76
2024/03/02 13:30:18;;;;;;;6.30;4.50;;;;;;;;;;4984410;28;20145;-76
2024/03/02 13:32:43;;;;;;;6.18;4.55;;;;;;;;;;4970501;28;20034;-82
2024/03/02 13:35:11;;;;;;;5.35;3.85;;;;;;;;;;4990616;28;20035;-80
2024/03/02 13:37:36;;;;;;;6.97;4.50;;;;;;;;;;4996210;28;20041;-79
2024/03/02 13:40:01;;;;;;;6.53;4.50;;;;;;;;;;4979182;28;20034;-78
2024/03/02 13:42:27;;;;;;;6.45;4.47;;;;;;;;;;4974084;28;20046;-79
2024/03/02 13:44:52;;;;;;;5.38;4.22;;;;;;;;;;4971745;28;20038;-80
2024/03/02 13:47:18;;;;;;;6.72;4.30;;;;;;;;;;4972990;28;20522;-80
2024/03/02 13:49:45;;;;;;;6.38;4.35;;;;;;;;;;4972785;28;20039;-83
2024/03/02 13:52:12;;;;;;;6.15;4.40;;;;;;;;;;4964829;28;20062;-83
2024/03/02 13:54:41;;;;;;;6.18;4.60;;;;;;;;;;4985434;28;20096;-80
2024/03/02 13:57:07;;;;;;;7.10;4.53;;;;;;;;;;4949389;28;20043;-81
2024/03/02 13:59:33;;;;;;;5.72;4.15;;;;;;;;;;4957614;28;20039;-75
2024/03/02 14:01:58;;;;;;;6.88;4.63;;;;;;;;;;4962024;28;20051;-76
2024/03/02 14:04:23;;;;;;;6.53;4.40;;;;;;;;;;4957372;28;20131;-76
2024/03/02 14:06:49;;;;;;;5.95;4.20;;;;;;;;;;4962765;28;20294;-76
2024/03/02 14:09:14;;;;;;;7.53;4.68;;;;;;;;;;4960384;28;20050;-75
2024/03/02 14:11:40;;;;;;;8.50;4.63;;;;;;;;;;4963463;28;20121;-89
2024/03/02 14:14:05;;;;;;;7.18;4.50;;;;;;;;;;4967380;28;20594;-77
2024/03/02 14:16:30;;;;;;;7.05;4.07;;;;;;;;;;4960427;28;20082;-84
2024/03/02 14:18:56;;;;;;;6.20;4.47;;;;;;;;;;4964069;28;20038;-82
2024/03/02 14:21:21;;;;;;;6.53;4.18;;;;;;;;;;4962156;28;20042;-77
2024/03/02 14:23:46;;;;;;;7.25;4.53;;;;;;;;;;4941031;28;20101;-77
2024/03/02 14:26:12;;;;;;;9.50;4.57;;;;;;;;;;4970989;28;20429;-83
2024/03/02 14:28:37;;;;;;;5.65;4.20;;;;;;;;;;4965207;28;20494;-73
2024/03/02 14:31:02;;;;;;;9.23;4.68;;;;;;;;;;4967673;28;20042;-80
2024/03/02 14:33:28;;;;;;;7.45;4.40;;;;;;;;;;4966747;28;20035;-80
2024/03/02 14:35:54;;;;;;;6.47;4.65;;;;;;;;;;4944815;28;20035;-80
2024/03/02 14:38:19;;;;;;;7.35;4.65;;;;;;;;;;4963381;28;20585;-78
2024/03/02 14:40:44;;;;;;;6.35;4.65;;;;;;;;;;4962209;28;20030;-80